Time;durP1;ratioP1;P1;durP2;ratioP2;P2;SDS_P1;SDS_P2;PMS_P1;PMS_P2;Temp;Humidity;BMP_temperature;BMP_pressure;BME280_temperature;BME280_humidity;BME280_pressure;Samples;Min_cycle;Max_cycle;Signal;HPM_P1;HPM_P2
2022/03/15 00:01:02;;;;;;;53.17;32.30;;;;;;;0.00;100.00;102214.31;5011886;28;20056;-72
2022/03/15 00:03:28;;;;;;;48.65;29.60;;;;;;;0.06;100.00;102221.25;5011652;28;20049;-73
2022/03/15 00:05:53;;;;;;;44.33;27.15;;;;;;;-0.46;100.00;102205.22;5011984;28;20522;-73
2022/03/15 00:08:19;;;;;;;51.30;32.67;;;;;;;-0.56;100.00;102203.91;5011731;28;20168;-72
2022/03/15 00:10:47;;;;;;;76.00;47.25;;;;;;;-0.57;100.00;102207.16;5011616;28;20061;-72
2022/03/15 00:13:13;;;;;;;78.35;51.10;;;;;;;-0.25;100.00;102232.19;5011372;28;20030;-72
2022/03/15 00:15:42;;;;;;;77.80;50.58;;;;;;;-0.26;100.00;102234.63;5011731;28;20081;-71
2022/03/15 00:18:07;;;;;;;78.03;49.20;;;;;;;-0.48;100.00;102232.63;4994306;28;20088;-72
2022/03/15 00:20:34;;;;;;;73.60;45.47;;;;;;;0.10;100.00;102205.63;5011599;28;20034;-72
2022/03/15 00:23:00;;;;;;;63.75;38.75;;;;;;;-0.01;100.00;102230.09;5011472;28;20092;-72
2022/03/15 00:25:26;;;;;;;71.22;42.65;;;;;;;-0.07;100.00;102227.28;5011597;28;20033;-71
2022/03/15 00:27:52;;;;;;;79.22;48.38;;;;;;;-0.27;100.00;102156.28;5011448;28;20030;-69
2022/03/15 00:30:19;;;;;;;74.55;50.22;;;;;;;-0.41;100.00;102201.31;5011876;28;20117;-72
2022/03/15 00:32:44;;;;;;;62.30;40.80;;;;;;;-0.23;100.00;102208.13;5011892;28;20121;-71
2022/03/15 00:35:18;;;;;;;40.78;26.50;;;;;;;-0.68;100.00;102224.84;5011483;28;20514;-72
2022/03/15 00:37:48;;;;;;;34.72;24.10;;;;;;;-0.92;100.00;102224.41;5011363;28;20054;-72
2022/03/15 00:40:15;;;;;;;39.83;23.75;;;;;;;-1.20;100.00;102161.28;5011064;28;20033;-72
2022/03/15 00:42:48;;;;;;;39.25;26.17;;;;;;;-1.13;100.00;102206.59;5010193;28;20030;-72
2022/03/15 00:45:14;;;;;;;41.88;26.77;;;;;;;-0.99;100.00;102183.28;5012610;28;20026;-69
2022/03/15 00:47:40;;;;;;;44.25;26.10;;;;;;;-0.78;100.00;102188.56;5030523;28;20176;-72
2022/03/15 00:50:06;;;;;;;40.33;25.55;;;;;;;-0.83;100.00;102172.47;5015166;28;20033;-72
2022/03/15 00:52:31;;;;;;;42.90;26.65;;;;;;;-1.06;100.00;102212.81;5015192;28;20034;-72
2022/03/15 00:54:57;;;;;;;47.10;27.98;;;;;;;-0.98;100.00;102176.66;5014762;28;20045;-72
2022/03/15 00:57:22;;;;;;;51.72;31.25;;;;;;;-1.51;100.00;102180.34;5014790;28;20113;-72
2022/03/15 00:59:48;;;;;;;96.78;52.63;;;;;;;-1.13;100.00;102170.84;5015065;28;20157;-71
2022/03/15 01:02:25;;;;;;;46.85;28.83;;;;;;;-1.45;100.00;102174.06;4745624;22;10000463;-67
2022/03/15 01:04:51;;;;;;;49.00;27.58;;;;;;;-1.98;100.00;102178.50;5034037;28;20842;-71
2022/03/15 01:07:16;;;;;;;45.00;26.40;;;;;;;-1.35;100.00;102205.34;5034703;28;20029;-72
2022/03/15 01:09:42;;;;;;;44.17;26.05;;;;;;;-1.23;100.00;102201.06;5034805;28;20128;-72
2022/03/15 01:12:08;;;;;;;37.83;25.65;;;;;;;-1.31;100.00;102187.28;5034427;28;20105;-72
2022/03/15 01:14:35;;;;;;;36.15;24.48;;;;;;;-1.89;100.00;102171.56;5017129;28;20025;-71
2022/03/15 01:17:00;;;;;;;35.35;23.85;;;;;;;-1.77;100.00;102204.66;5034091;28;20033;-71
2022/03/15 01:19:26;;;;;;;32.28;21.55;;;;;;;-2.20;100.00;102212.88;5034072;28;20029;-71
2022/03/15 01:21:52;;;;;;;32.45;21.77;;;;;;;-1.87;100.00;102204.03;5034251;28;20502;-71
2022/03/15 01:24:18;;;;;;;36.28;22.40;;;;;;;-1.70;100.00;102200.03;5016666;28;20057;-71
2022/03/15 01:26:44;;;;;;;34.50;22.65;;;;;;;-2.54;100.00;102179.31;5033876;28;20475;-71
2022/03/15 01:29:09;;;;;;;33.30;22.42;;;;;;;-2.01;100.00;102200.75;5034071;28;20026;-71
2022/03/15 01:31:35;;;;;;;37.30;22.50;;;;;;;-1.95;100.00;102197.75;5034032;28;20029;-71
2022/03/15 01:34:00;;;;;;;37.03;24.67;;;;;;;-1.73;100.00;102198.22;5033650;28;20079;-71
2022/03/15 01:36:26;;;;;;;35.58;24.05;;;;;;;-1.54;100.00;102195.09;5033616;28;20088;-71
2022/03/15 01:38:53;;;;;;;35.05;23.02;;;;;;;-1.61;100.00;102190.56;5034042;28;20183;-71
2022/03/15 01:41:19;;;;;;;36.72;24.48;;;;;;;-1.35;100.00;102183.78;5034219;28;20026;-72
2022/03/15 01:43:46;;;;;;;35.75;23.45;;;;;;;-1.46;100.00;102154.88;5033909;28;20029;-73
2022/03/15 01:46:12;;;;;;;34.97;23.52;;;;;;;-1.13;100.00;102183.31;5016075;28;20065;-70
2022/03/15 01:48:39;;;;;;;32.67;22.65;;;;;;;-1.20;100.00;102179.63;5015905;28;20035;-71
2022/03/15 01:51:05;;;;;;;33.33;20.90;;;;;;;-1.78;100.00;102182.13;5033883;28;20033;-72
2022/03/15 01:53:31;;;;;;;31.38;20.20;;;;;;;-1.21;100.00;102165.41;5033751;28;20132;-71
2022/03/15 01:55:57;;;;;;;33.08;21.95;;;;;;;-1.17;100.00;102162.31;5033620;28;20065;-71
2022/03/15 01:58:22;;;;;;;36.15;23.77;;;;;;;-1.70;100.00;102188.41;5032952;28;20469;-71
2022/03/15 02:00:48;;;;;;;36.85;23.88;;;;;;;-2.63;100.00;102153.84;5033171;28;20024;-72
2022/03/15 02:03:14;;;;;;;35.63;23.35;;;;;;;-2.20;100.00;102187.97;5041536;28;20080;-71
2022/03/15 02:05:39;;;;;;;33.88;21.90;;;;;;;-2.03;100.00;102135.03;5033637;28;20029;-71
2022/03/15 02:08:13;;;;;;;34.22;21.45;;;;;;;-1.90;100.00;102136.56;5033337;28;20034;-70
2022/03/15 02:10:39;;;;;;;33.63;20.67;;;;;;;-1.81;100.00;102160.41;5033643;28;20026;-71
2022/03/15 02:13:05;;;;;;;30.25;19.00;;;;;;;-2.48;100.00;102182.16;5033219;28;20083;-71
2022/03/15 02:15:30;;;;;;;28.15;18.52;;;;;;;-2.62;100.00;102195.41;5015421;28;20112;-71
2022/03/15 02:17:56;;;;;;;26.70;16.38;;;;;;;-2.34;100.00;102166.41;5033546;28;20025;-70
2022/03/15 02:20:22;;;;;;;25.05;16.60;;;;;;;-2.37;100.00;102191.13;5013533;28;20033;-71
2022/03/15 02:22:47;;;;;;;23.60;16.38;;;;;;;-2.48;100.00;102186.28;5013757;28;20060;-71
2022/03/15 02:25:13;;;;;;;25.00;16.73;;;;;;;-2.28;100.00;102156.81;4996008;28;20033;-71
2022/03/15 02:27:39;;;;;;;25.60;16.42;;;;;;;-2.42;100.00;102185.03;5013103;28;20034;-71
2022/03/15 02:30:06;;;;;;;26.42;18.10;;;;;;;-2.20;100.00;102155.59;4996117;28;20116;-71
2022/03/15 02:32:32;;;;;;;28.17;17.85;;;;;;;-2.08;100.00;102193.69;5013530;28;20757;-72
2022/03/15 02:34:57;;;;;;;24.67;17.52;;;;;;;-2.02;100.00;102149.19;5013045;28;20029;-65
2022/03/15 02:37:24;;;;;;;28.23;19.80;;;;;;;-1.83;100.00;102176.03;5013227;28;20044;-71
2022/03/15 02:39:50;;;;;;;34.10;22.88;;;;;;;-2.09;100.00;102172.03;5028322;28;20025;-72
2022/03/15 02:42:16;;;;;;;31.63;21.67;;;;;;;-2.09;100.00;102123.84;4995560;28;20029;-72
2022/03/15 02:44:42;;;;;;;35.92;23.40;;;;;;;-2.02;100.00;102155.84;5012980;28;20030;-71
2022/03/15 02:47:07;;;;;;;36.20;23.73;;;;;;;-1.66;100.00;102157.06;4995700;28;20030;-72
2022/03/15 02:49:33;;;;;;;34.40;23.33;;;;;;;-1.55;100.00;102171.84;5012928;28;20033;-71
2022/03/15 02:51:58;;;;;;;40.50;26.58;;;;;;;-1.91;100.00;102148.19;4995615;28;20065;-72
2022/03/15 02:54:24;;;;;;;42.35;27.55;;;;;;;-1.44;100.00;102179.88;5013048;28;20034;-71
2022/03/15 02:56:50;;;;;;;37.92;25.35;;;;;;;-1.55;100.00;102173.47;5027983;28;20033;-71
2022/03/15 02:59:16;;;;;;;41.90;27.25;;;;;;;-1.85;100.00;102161.00;5012560;28;20022;-71
2022/03/15 03:01:42;;;;;;;42.83;25.95;;;;;;;-1.75;100.00;102192.28;4995942;28;20040;-69
2022/03/15 03:04:09;;;;;;;41.45;27.98;;;;;;;-2.18;100.00;102198.06;5015021;28;20040;-69
2022/03/15 03:06:35;;;;;;;48.50;31.83;;;;;;;-2.16;100.00;102201.50;5032456;28;20029;-71
2022/03/15 03:09:00;;;;;;;44.70;29.77;;;;;;;-2.10;100.00;102202.69;5031062;28;20029;-70
2022/03/15 03:11:25;;;;;;;39.35;25.60;;;;;;;-1.94;100.00;102201.97;5031235;28;20029;-71
2022/03/15 03:13:55;;;;;;;37.22;23.67;;;;;;;-2.28;100.00;102209.09;5034791;28;20129;-72
2022/03/15 03:16:21;;;;;;;30.98;23.05;;;;;;;-1.97;100.00;102174.38;5052122;28;20029;-72
2022/03/15 03:18:46;;;;;;;33.63;20.65;;;;;;;-2.16;100.00;102152.53;5052067;28;20450;-72
2022/03/15 03:21:12;;;;;;;30.70;20.77;;;;;;;-2.24;100.00;102175.28;5042884;28;20029;-72
2022/03/15 03:23:38;;;;;;;34.15;19.98;;;;;;;-2.56;100.00;102212.34;5031999;28;20088;-72
2022/03/15 03:26:04;;;;;;;28.90;19.88;;;;;;;-2.24;100.00;102222.59;5032256;28;20029;-71
2022/03/15 03:28:36;;;;;;;31.67;21.20;;;;;;;-2.01;100.00;102219.81;5031867;28;20120;-71
2022/03/15 03:31:03;;;;;;;31.73;21.52;;;;;;;-2.26;100.00;102195.13;5031897;28;20030;-64
2022/03/15 03:33:28;;;;;;;36.42;23.63;;;;;;;-2.42;100.00;102191.63;5031771;28;20033;-72
2022/03/15 03:35:54;;;;;;;39.67;25.90;;;;;;;-2.60;100.00;102202.94;5031948;28;20040;-71
2022/03/15 03:38:19;;;;;;;40.83;27.40;;;;;;;-2.06;100.00;102218.69;5031897;28;20056;-71
2022/03/15 03:40:44;;;;;;;41.22;27.15;;;;;;;-2.63;100.00;102220.22;5032178;28;20025;-72
2022/03/15 03:43:10;;;;;;;50.38;28.42;;;;;;;-2.40;100.00;102220.81;5031856;28;20030;-71
2022/03/15 03:45:36;;;;;;;41.40;27.63;;;;;;;-2.24;100.00;102222.59;5032298;28;20033;-71
2022/03/15 03:48:02;;;;;;;46.47;28.20;;;;;;;-2.10;100.00;102225.09;5051823;28;20032;-71
2022/03/15 03:50:28;;;;;;;48.88;29.38;;;;;;;-2.45;100.00;102224.66;5051667;28;20053;-71
2022/03/15 03:52:54;;;;;;;43.20;29.23;;;;;;;-1.85;100.00;102220.81;5051362;28;20490;-71
2022/03/15 03:55:20;;;;;;;42.50;29.63;;;;;;;-2.21;100.00;102143.94;5051365;28;20025;-71
2022/03/15 03:57:45;;;;;;;37.83;26.73;;;;;;;-1.62;100.00;102197.19;5050908;28;20033;-71
2022/03/15 04:00:11;;;;;;;37.95;25.65;;;;;;;-1.66;100.00;102202.75;5038222;28;20031;-73
2022/03/15 04:02:36;;;;;;;36.83;25.00;;;;;;;-1.79;100.00;102166.34;5042866;28;20043;-73
2022/03/15 04:05:02;;;;;;;34.45;23.83;;;;;;;-2.15;100.00;102193.22;5031874;28;20418;-73
2022/03/15 04:07:29;;;;;;;45.53;32.65;;;;;;;-2.66;100.00;102189.38;5031627;28;20415;-72
2022/03/15 04:09:55;;;;;;;44.30;33.88;;;;;;;-2.41;100.00;102146.03;5014109;28;20025;-71
2022/03/15 04:12:22;;;;;;;46.42;29.50;;;;;;;-2.31;100.00;102145.78;5031539;28;20033;-71
2022/03/15 04:14:48;;;;;;;47.60;33.47;;;;;;;-2.32;100.00;102181.44;5031333;28;20030;-72
2022/03/15 04:17:15;;;;;;;61.15;43.38;;;;;;;-2.35;100.00;102192.06;5031558;28;20060;-72
2022/03/15 04:19:40;;;;;;;141.70;80.45;;;;;;;-2.59;100.00;102157.41;5031570;28;20411;-72
2022/03/15 04:22:06;;;;;;;282.80;145.77;;;;;;;-2.95;100.00;102169.31;5035339;28;20034;-71
2022/03/15 04:24:32;;;;;;;196.77;102.78;;;;;;;-2.50;100.00;102175.34;5017962;28;20124;-71
2022/03/15 04:26:59;;;;;;;110.70;60.65;;;;;;;-2.40;100.00;102135.31;5035409;28;20033;-71
2022/03/15 04:29:25;;;;;;;65.07;39.67;;;;;;;-2.53;100.00;102123.75;5035511;28;20133;-71
2022/03/15 04:31:50;;;;;;;58.67;34.05;;;;;;;-2.55;100.00;102126.91;5017973;28;20120;-71
2022/03/15 04:34:16;;;;;;;54.88;34.58;;;;;;;-2.40;100.00;102161.06;5035269;28;20399;-72
2022/03/15 04:36:42;;;;;;;55.17;35.30;;;;;;;-2.69;100.00;102168.41;5035239;28;20037;-72
2022/03/15 04:39:07;;;;;;;55.05;33.78;;;;;;;-2.38;100.00;102171.13;5035005;28;20080;-68
2022/03/15 04:41:32;;;;;;;86.90;42.30;;;;;;;-2.37;100.00;102151.28;5015555;28;20092;-70
2022/03/15 04:43:58;;;;;;;51.50;29.35;;;;;;;-2.21;100.00;102176.31;5034435;28;20507;-71
2022/03/15 04:46:24;;;;;;;45.28;29.00;;;;;;;-1.92;100.00;102168.88;5029432;28;20101;-71
2022/03/15 04:48:49;;;;;;;44.05;26.98;;;;;;;-2.49;100.00;102155.53;5014952;28;20128;-72
2022/03/15 04:51:15;;;;;;;43.60;28.13;;;;;;;-2.43;100.00;102183.28;5014779;28;20026;-72
2022/03/15 04:53:40;;;;;;;53.50;33.75;;;;;;;-2.19;100.00;102174.78;4997652;28;20037;-74
2022/03/15 04:56:06;;;;;;;52.75;35.15;;;;;;;-1.81;100.00;102175.34;5014704;28;20030;-73
2022/03/15 04:58:32;;;;;;;64.80;36.70;;;;;;;-2.15;100.00;102166.72;4996950;28;20022;-71
2022/03/15 05:00:57;;;;;;;67.03;41.42;;;;;;;-2.28;100.00;102179.22;4997637;28;20084;-72
2022/03/15 05:03:23;;;;;;;71.22;47.13;;;;;;;-2.48;100.00;102177.19;5029251;28;20088;-71
2022/03/15 05:05:48;;;;;;;56.10;37.15;;;;;;;-2.25;100.00;102147.00;5034438;28;20499;-71
2022/03/15 05:08:14;;;;;;;61.15;38.17;;;;;;;-2.56;100.00;102188.31;5034610;28;20025;-71
2022/03/15 05:13:23;;;;;;;56.92;36.22;;;;;;;-1.99;100.00;102183.41;5034294;28;20043;-73
2022/03/15 05:15:48;;;;;;;50.53;33.08;;;;;;;-2.01;100.00;102155.03;5017109;28;20037;-73
2022/03/15 05:18:14;;;;;;;45.35;30.10;;;;;;;-1.20;100.00;102178.75;5034250;28;20057;-68
2022/03/15 05:20:39;;;;;;;65.80;35.03;;;;;;;1.85;100.00;102144.53;5034616;28;20057;-74
2022/03/15 05:23:05;;;;;;;72.75;35.85;;;;;;;1.96;100.00;102180.94;5034276;28;20029;-75
2022/03/15 05:25:31;;;;;;;57.35;35.10;;;;;;;2.40;100.00;102173.63;5034451;28;20068;-72
2022/03/15 05:27:57;;;;;;;48.88;30.30;;;;;;;2.56;100.00;102167.53;5034379;28;20167;-74
2022/03/15 05:30:22;;;;;;;50.20;31.48;;;;;;;1.82;100.00;102166.13;5034439;28;20025;-72
2022/03/15 05:32:48;;;;;;;50.03;33.17;;;;;;;1.02;100.00;102165.91;5033195;28;20029;-72
2022/03/15 05:35:13;;;;;;;52.83;34.42;;;;;;;-0.10;100.00;102174.66;5033742;28;20029;-72
2022/03/15 05:37:39;;;;;;;59.95;38.38;;;;;;;-0.73;100.00;102174.66;5015229;28;20040;-68
2022/03/15 05:40:05;;;;;;;48.88;29.70;;;;;;;-0.59;100.00;102160.41;5033069;28;20447;-72
2022/03/15 05:42:30;;;;;;;54.55;33.97;;;;;;;-0.51;100.00;102192.50;5033469;28;20034;-72
2022/03/15 05:44:56;;;;;;;58.60;34.65;;;;;;;0.13;100.00;102158.28;5033693;28;20037;-72
2022/03/15 05:47:21;;;;;;;60.95;38.35;;;;;;;0.28;100.00;102174.03;5033714;28;20097;-74
2022/03/15 05:49:47;;;;;;;64.90;42.42;;;;;;;0.60;100.00;102187.28;5033777;28;20037;-76
2022/03/15 05:52:12;;;;;;;72.18;45.22;;;;;;;-0.34;100.00;102174.25;5033909;28;20029;-73
2022/03/15 05:54:38;;;;;;;70.57;45.47;;;;;;;0.54;100.00;102192.00;5033456;28;20119;-74
2022/03/15 05:57:03;;;;;;;76.30;49.28;;;;;;;0.60;100.00;102221.47;5032413;28;20076;-71
2022/03/15 05:59:29;;;;;;;74.72;50.30;;;;;;;0.62;100.00;102215.75;5032934;28;20029;-72
2022/03/15 06:01:55;;;;;;;78.65;52.42;;;;;;;0.24;100.00;102222.19;5031395;28;20057;-73
2022/03/15 06:04:26;;;;;;;84.47;53.58;;;;;;;0.99;100.00;102217.50;5032497;28;20032;-74
2022/03/15 06:06:55;;;;;;;69.28;45.55;;;;;;;0.68;100.00;102181.00;5032747;28;20060;-72
2022/03/15 06:09:22;;;;;;;58.65;38.92;;;;;;;0.59;100.00;102194.75;5032718;28;20029;-72
2022/03/15 06:11:48;;;;;;;57.90;36.15;;;;;;;0.91;100.00;102188.75;5032878;28;20057;-72
2022/03/15 06:14:13;;;;;;;51.45;32.47;;;;;;;0.98;100.00;102196.59;5032759;28;20414;-71
2022/03/15 06:16:39;;;;;;;47.20;32.47;;;;;;;1.79;100.00;102209.47;5032694;28;20098;-72
2022/03/15 06:19:04;;;;;;;49.28;31.38;;;;;;;1.70;100.00;102214.94;5032949;28;20180;-72
2022/03/15 06:21:30;;;;;;;54.15;37.83;;;;;;;2.02;100.00;102156.13;5033105;28;20036;-70
2022/03/15 06:23:55;;;;;;;59.72;38.42;;;;;;;2.27;100.00;102168.03;5032857;28;20032;-71
2022/03/15 06:26:21;;;;;;;51.70;35.28;;;;;;;2.67;100.00;102189.75;5033194;28;20025;-72
2022/03/15 06:28:47;;;;;;;41.60;25.80;;;;;;;2.39;100.00;102207.06;5032928;28;20091;-71
2022/03/15 06:31:14;;;;;;;35.50;23.42;;;;;;;2.35;100.00;102182.63;5015328;28;20124;-72
2022/03/15 06:33:41;;;;;;;32.63;22.25;;;;;;;2.63;100.00;102204.66;5033012;28;20396;-71
2022/03/15 06:36:09;;;;;;;35.38;22.85;;;;;;;2.94;100.00;102201.69;5032471;28;20037;-70
2022/03/15 06:38:34;;;;;;;37.78;24.27;;;;;;;3.42;100.00;102196.88;5032922;28;20108;-73
2022/03/15 06:41:00;;;;;;;45.75;28.70;;;;;;;3.71;100.00;102197.03;5015568;28;20033;-73
2022/03/15 06:43:25;;;;;;;29.98;20.77;;;;;;;3.05;100.00;102191.25;5033146;28;20112;-73
2022/03/15 06:45:51;;;;;;;29.48;20.80;;;;;;;3.49;100.00;102168.63;5032867;28;20128;-73
2022/03/15 06:48:16;;;;;;;42.33;25.55;;;;;;;4.04;100.00;102198.25;5032944;28;20028;-72
2022/03/15 06:50:42;;;;;;;34.05;23.25;;;;;;;3.85;100.00;102159.00;5015025;28;20414;-72
2022/03/15 06:53:07;;;;;;;27.55;21.00;;;;;;;4.19;100.00;102179.47;5032491;28;20029;-73
2022/03/15 06:55:33;;;;;;;32.75;19.15;;;;;;;4.53;100.00;102176.38;5032923;28;20496;-72
2022/03/15 06:58:00;;;;;;;27.00;17.77;;;;;;;4.27;100.00;102174.69;5015171;28;20411;-73
2022/03/15 07:00:26;;;;;;;25.23;17.42;;;;;;;4.31;100.00;102191.59;5015086;28;20025;-72
2022/03/15 07:02:51;;;;;;;26.33;17.95;;;;;;;4.05;100.00;102154.63;5032430;28;20526;-73
2022/03/15 07:05:17;;;;;;;31.55;21.25;;;;;;;4.15;100.00;102176.78;5032166;28;20025;-71
2022/03/15 07:07:42;;;;;;;36.40;23.13;;;;;;;4.64;100.00;102146.47;5032697;28;20129;-73
2022/03/15 07:10:09;;;;;;;28.00;18.95;;;;;;;4.56;100.00;102128.63;5032614;28;20033;-73
2022/03/15 07:12:35;;;;;;;32.08;20.30;;;;;;;4.00;100.00;102120.94;5032303;28;20487;-73
2022/03/15 07:15:03;;;;;;;25.90;18.58;;;;;;;4.68;100.00;102135.69;5032257;28;20041;-72
2022/03/15 07:17:30;;;;;;;25.50;17.20;;;;;;;4.82;100.00;102160.50;5032652;28;20036;-72
2022/03/15 07:19:57;;;;;;;21.08;16.13;;;;;;;5.02;100.00;102121.66;5031891;28;20175;-72
2022/03/15 07:22:24;;;;;;;28.92;19.42;;;;;;;4.94;100.00;102143.25;5032090;28;20030;-72
2022/03/15 07:24:50;;;;;;;25.23;18.02;;;;;;;5.03;100.00;102168.69;5014499;28;20096;-72
2022/03/15 07:27:15;;;;;;;30.20;20.75;;;;;;;5.82;100.00;102163.41;5031900;28;20069;-72
2022/03/15 07:29:40;;;;;;;22.17;16.67;;;;;;;4.65;100.00;102160.81;5032245;28;20056;-72
2022/03/15 07:32:06;;;;;;;36.33;23.67;;;;;;;6.32;100.00;102157.97;5031991;28;20025;-72
2022/03/15 07:34:32;;;;;;;31.15;18.40;;;;;;;5.97;100.00;102162.16;5031881;28;20037;-73
2022/03/15 07:36:57;;;;;;;21.38;14.77;;;;;;;4.45;100.00;102141.69;5032281;28;20040;-72
2022/03/15 07:39:22;;;;;;;21.40;15.32;;;;;;;4.94;100.00;102165.94;5031907;28;20026;-72
2022/03/15 07:41:48;;;;;;;23.23;16.55;;;;;;;5.20;100.00;102144.88;5031641;28;20451;-71
2022/03/15 07:44:13;;;;;;;27.90;18.70;;;;;;;6.02;99.36;102142.09;5031493;28;20495;-72
2022/03/15 07:46:43;;;;;;;40.50;27.08;;;;;;;6.16;98.04;102139.91;5031653;28;20029;-72
2022/03/15 07:49:08;;;;;;;39.55;25.50;;;;;;;6.65;93.85;102157.94;5031069;28;20029;-72
2022/03/15 07:51:34;;;;;;;30.10;21.85;;;;;;;6.56;90.50;102135.81;5031605;28;20039;-72
2022/03/15 07:53:59;;;;;;;20.85;16.20;;;;;;;6.03;90.76;102142.13;5031338;28;20112;-71
2022/03/15 07:56:25;;;;;;;25.23;16.98;;;;;;;7.66;83.94;102153.38;5013017;28;20021;-70
2022/03/15 07:58:50;;;;;;;23.85;19.55;;;;;;;6.27;87.71;102123.34;5031208;28;20035;-70
2022/03/15 08:01:16;;;;;;;19.42;16.55;;;;;;;7.27;83.07;102166.91;5031180;28;20048;-71
2022/03/15 08:03:41;;;;;;;21.10;15.90;;;;;;;6.33;78.33;102152.13;5030586;28;20095;-71
2022/03/15 08:06:07;;;;;;;21.40;15.68;;;;;;;6.89;81.75;102143.34;5013890;28;20087;-71
2022/03/15 08:08:32;;;;;;;24.63;17.95;;;;;;;7.20;82.47;102140.63;5031356;28;20057;-72
2022/03/15 08:10:58;;;;;;;26.42;19.70;;;;;;;7.26;84.63;102166.03;5031194;28;20083;-72
2022/03/15 08:13:23;;;;;;;30.55;19.98;;;;;;;6.45;85.69;102177.69;5031466;28;20484;-71
2022/03/15 08:15:49;;;;;;;20.10;16.35;;;;;;;6.49;89.80;102176.09;5031418;28;20037;-71
2022/03/15 08:18:14;;;;;;;20.55;16.00;;;;;;;6.77;85.52;102143.88;5013191;28;20037;-71
2022/03/15 08:20:40;;;;;;;26.77;18.65;;;;;;;7.25;81.83;102164.31;5031460;28;20494;-71
2022/03/15 08:23:07;;;;;;;14.93;12.48;;;;;;;7.16;81.53;102166.66;5013865;28;20069;-72
2022/03/15 08:25:33;;;;;;;17.95;14.30;;;;;;;6.43;85.27;102149.00;5031142;28;20103;-72
2022/03/15 08:28:00;;;;;;;21.05;16.15;;;;;;;7.45;82.07;102157.13;5031290;28;20463;-72
2022/03/15 08:30:27;;;;;;;25.55;17.52;;;;;;;7.33;81.12;102154.38;5031016;28;20037;-71
2022/03/15 08:32:52;;;;;;;22.20;17.23;;;;;;;7.58;76.72;102154.03;5030928;28;20064;-66
2022/03/15 08:35:18;;;;;;;23.95;18.42;;;;;;;8.13;76.33;102164.34;5030881;28;20061;-72
2022/03/15 08:37:50;;;;;;;23.63;16.08;;;;;;;6.84;77.71;102165.97;5031206;28;20033;-72
2022/03/15 08:40:16;;;;;;;29.40;18.90;;;;;;;8.14;75.29;102157.59;5031091;28;20510;-70
2022/03/15 08:42:41;;;;;;;29.02;19.77;;;;;;;7.67;77.92;102141.53;5031270;28;20103;-72
2022/03/15 08:45:09;;;;;;;22.67;16.60;;;;;;;8.30;74.59;102129.19;5030952;28;20479;-72
2022/03/15 08:47:34;;;;;;;23.85;15.30;;;;;;;8.40;73.32;102141.16;5030782;28;20029;-72
2022/03/15 08:50:00;;;;;;;19.02;14.73;;;;;;;9.26;70.14;102120.41;5013593;28;20064;-73
2022/03/15 08:52:25;;;;;;;20.10;14.30;;;;;;;7.99;72.80;102142.13;5031072;28;20391;-72
2022/03/15 08:54:50;;;;;;;20.40;15.77;;;;;;;8.38;71.09;102108.19;5031160;28;20109;-73
2022/03/15 08:57:17;;;;;;;26.50;18.42;;;;;;;8.27;71.99;102137.59;5030994;28;20025;-73
2022/03/15 08:59:43;;;;;;;26.48;18.55;;;;;;;8.93;70.79;102132.69;5030797;28;20472;-72
2022/03/15 09:02:12;;;;;;;22.55;17.63;;;;;;;9.21;68.22;102109.34;5030460;28;20121;-73
2022/03/15 09:04:38;;;;;;;19.23;14.63;;;;;;;9.42;65.19;102090.97;5013392;28;20563;-73
2022/03/15 09:07:04;;;;;;;18.10;14.30;;;;;;;10.21;63.11;102093.44;5033357;28;20033;-73
2022/03/15 09:09:29;;;;;;;41.03;27.92;;;;;;;11.04;62.17;102082.91;5034382;28;20030;-73
2022/03/15 09:11:54;;;;;;;18.45;15.60;;;;;;;10.93;60.49;102110.88;5016892;28;20118;-73
2022/03/15 09:14:20;;;;;;;20.75;15.32;;;;;;;10.26;62.14;102104.47;5034764;28;20037;-71
2022/03/15 09:16:45;;;;;;;23.88;17.10;;;;;;;11.11;61.04;102103.28;5034156;28;20104;-70
2022/03/15 09:19:11;;;;;;;26.20;20.60;;;;;;;10.08;57.80;102096.69;5034612;28;20028;-72
2022/03/15 09:21:37;;;;;;;25.17;18.85;;;;;;;9.47;59.83;102063.94;5016719;28;20096;-73
2022/03/15 09:24:03;;;;;;;21.40;13.40;;;;;;;10.10;59.01;102092.50;5034530;28;20104;-75
2022/03/15 09:26:29;;;;;;;33.85;19.55;;;;;;;11.60;57.12;102068.63;5034663;28;20088;-74
2022/03/15 09:28:54;;;;;;;15.45;11.63;;;;;;;9.86;57.40;102066.00;5034519;28;20029;-74
2022/03/15 09:31:20;;;;;;;16.35;13.10;;;;;;;11.22;56.75;102075.31;5034110;28;20084;-74
2022/03/15 09:33:45;;;;;;;15.32;11.15;;;;;;;10.01;55.77;102054.28;5034547;28;20092;-75
2022/03/15 09:36:12;;;;;;;20.90;16.40;;;;;;;11.58;55.80;102034.66;5033998;28;20494;-75
2022/03/15 09:38:38;;;;;;;16.38;11.23;;;;;;;10.03;57.03;102054.28;5016676;28;20422;-72
2022/03/15 09:41:05;;;;;;;13.45;12.02;;;;;;;10.50;57.40;102050.41;5033792;28;20029;-73
2022/03/15 09:43:39;;;;;;;16.60;13.45;;;;;;;11.38;56.16;102066.88;5034164;28;20026;-73
2022/03/15 09:46:06;;;;;;;14.20;11.63;;;;;;;11.22;54.45;102060.91;5016463;28;20407;-74
2022/03/15 09:48:32;;;;;;;27.60;19.92;;;;;;;12.36;54.48;102048.28;5016192;28;20057;-73
2022/03/15 09:50:58;;;;;;;17.35;12.82;;;;;;;12.09;52.32;102027.06;5033878;28;20056;-65
2022/03/15 09:53:24;;;;;;;18.05;13.13;;;;;;;12.06;52.01;102037.22;5034181;28;20384;-73
2022/03/15 09:55:49;;;;;;;18.73;11.65;;;;;;;12.86;51.48;102033.63;5015920;28;20030;-73
2022/03/15 09:58:19;;;;;;;23.17;15.38;;;;;;;12.25;49.74;102029.56;5033692;28;20100;-72
2022/03/15 10:00:51;;;;;;;12.25;9.88;;;;;;;11.60;52.58;101984.56;5033564;28;20037;-74
2022/03/15 10:03:17;;;;;;;22.73;13.93;;;;;;;12.73;51.66;102007.31;5029764;28;20049;-72
2022/03/15 10:05:44;;;;;;;18.90;12.10;;;;;;;12.52;51.23;101986.16;5053304;28;20124;-71
2022/03/15 10:08:11;;;;;;;11.05;9.50;;;;;;;12.24;48.29;102008.31;5052980;28;20032;-72
2022/03/15 10:10:36;;;;;;;11.40;9.20;;;;;;;12.23;47.34;101985.38;5053172;28;20092;-73
2022/03/15 10:13:02;;;;;;;17.17;12.20;;;;;;;12.09;48.00;101955.66;5035605;28;20029;-75
2022/03/15 10:15:28;;;;;;;15.40;11.55;;;;;;;11.58;49.98;101996.47;5053253;28;20025;-72
2022/03/15 10:17:56;;;;;;;12.35;10.02;;;;;;;12.40;47.97;101976.81;5052829;28;20032;-73
2022/03/15 10:20:29;;;;;;;45.80;22.60;;;;;;;13.14;47.29;101961.16;5053102;28;20068;-72
2022/03/15 10:23:03;;;;;;;13.32;9.13;;;;;;;13.53;45.76;101978.75;5052924;28;20499;-71
2022/03/15 10:25:30;;;;;;;15.63;9.70;;;;;;;13.50;45.70;101967.72;5052854;28;20060;-72
2022/03/15 10:27:58;;;;;;;128.88;47.42;;;;;;;12.98;46.64;101956.97;5052978;28;20036;-70
2022/03/15 10:30:25;;;;;;;11.43;9.00;;;;;;;12.66;45.62;101946.09;5052841;28;20150;-70
2022/03/15 10:32:51;;;;;;;13.18;9.15;;;;;;;14.31;45.36;101945.66;5052544;28;20068;-70
2022/03/15 10:35:29;;;;;;;12.43;8.57;;;;;;;12.58;44.02;101945.28;5052321;28;20033;-70
2022/03/15 10:37:56;;;;;;;12.05;9.18;;;;;;;13.99;43.30;101943.41;5052103;28;20033;-69
2022/03/15 10:40:39;;;;;;;10.57;8.10;;;;;;;13.41;43.45;101932.84;5052114;28;20029;-70
2022/03/15 10:43:07;;;;;;;109.57;46.53;;;;;;;14.28;43.10;101930.34;5052370;28;20060;-70
2022/03/15 10:45:34;;;;;;;10.95;8.20;;;;;;;13.93;43.59;101946.03;5052035;28;20139;-69
2022/03/15 10:48:02;;;;;;;17.50;11.75;;;;;;;13.71;42.72;101927.50;5052230;28;20017;-70
2022/03/15 10:50:30;;;;;;;58.28;31.58;;;;;;;14.33;41.57;101915.75;5052233;28;20032;-71
2022/03/15 10:52:56;;;;;;;24.98;20.08;;;;;;;15.32;40.64;101898.09;5034569;28;20083;-72
2022/03/15 10:55:31;;;;;;;18.80;11.20;;;;;;;15.50;38.62;101911.50;5052565;28;20487;-72
2022/03/15 10:58:04;;;;;;;13.30;8.57;;;;;;;15.09;40.06;101892.53;5052654;28;20040;-71
2022/03/15 11:00:31;;;;;;;17.60;14.05;;;;;;;15.03;39.99;101880.66;5052541;28;20039;-72
2022/03/15 11:02:57;;;;;;;10.07;7.72;;;;;;;14.61;38.90;101876.16;5041264;28;20057;-72
2022/03/15 11:05:34;;;;;;;14.18;8.23;;;;;;;15.16;38.81;101887.25;5032195;28;20124;-71